Time,TemperatureF,DewpointF,PressureIn,WindDirection,WindDirectionDegrees,WindSpeedMPH,WindSpeedGustMPH,Humidity,HourlyPrecipIn,Conditions,Clouds,dailyrainin,SoftwareType,DateUTC
2013-08-05 00:00:00,58.3,54.4,29.09,WNW,292,0.0,0.0,87,0.00,,---,0.00,VWS V14.01,2013-08-05 05:00:00,
2013-08-05 00:05:00,58.3,54.8,29.09,WNW,292,0.0,0.0,88,0.00,,---,0.00,VWS V14.01,2013-08-05 05:05:00,
2013-08-05 00:10:00,58.1,54.6,29.09,WNW,292,0.0,0.0,88,0.00,,---,0.00,VWS V14.01,2013-08-05 05:10:00,
2013-08-05 00:15:00,58.1,54.9,29.06,WNW,292,0.0,0.0,89,0.00,,---,0.00,VWS V14.01,2013-08-05 05:15:00,
2013-08-05 00:20:00,58.1,54.9,29.06,WNW,292,0.0,0.0,89,0.00,,---,0.00,VWS V14.01,2013-08-05 05:20:00,
2013-08-05 00:25:00,57.9,54.7,29.06,WNW,292,0.0,0.0,89,0.00,,---,0.00,VWS V14.01,2013-08-05 05:25:00,
2013-08-05 00:31:00,57.9,54.7,29.06,WNW,292,0.0,0.0,89,0.00,,---,0.00,VWS V14.01,2013-08-05 05:31:00,
2013-08-05 00:36:00,57.9,55.0,29.06,WNW,292,0.0,0.0,90,0.00,,---,0.00,VWS V14.01,2013-08-05 05:36:00,
2013-08-05 00:41:00,57.9,54.7,29.06,WNW,292,0.0,0.0,89,0.00,,---,0.00,VWS V14.01,2013-08-05 05:41:00,
2013-08-05 00:46:00,57.9,54.7,29.06,WNW,292,0.0,0.0,89,0.00,,---,0.00,VWS V14.01,2013-08-05 05:46:00,
2013-08-05 00:52:00,57.9,54.7,29.06,WNW,292,0.0,0.0,89,0.00,,---,0.00,VWS V14.01,2013-08-05 05:52:00,
2013-08-05 00:57:00,58.1,54.9,29.06,WNW,292,0.0,0.0,89,0.00,,---,0.00,VWS V14.01,2013-08-05 05:57:00,
2013-08-05 01:02:00,58.1,54.9,29.06,WNW,292,0.0,0.0,89,0.00,,---,0.00,VWS V14.01,2013-08-05 06:02:00,
2013-08-05 01:07:00,58.1,54.6,29.06,WNW,292,0.0,0.0,88,0.00,,---,0.00,VWS V14.01,2013-08-05 06:07:00,
2013-08-05 01:12:00,57.9,54.4,29.06,WNW,292,0.0,0.0,88,0.00,,---,0.00,VWS V14.01,2013-08-05 06:12:00,
2013-08-05 01:17:00,58.1,54.6,29.06,WNW,292,0.0,0.0,88,0.00,,---,0.00,VWS V14.01,2013-08-05 06:17:00,
2013-08-05 01:22:00,58.1,54.6,29.06,WNW,292,0.0,0.0,88,0.00,,---,0.00,VWS V14.01,2013-08-05 06:22:00,
2013-08-05 01:27:00,58.1,54.3,29.03,WNW,292,0.0,0.0,87,0.00,,---,0.00,VWS V14.01,2013-08-05 06:27:00,
2013-08-05 01:32:00,58.1,53.9,29.03,WNW,292,0.0,0.0,86,0.00,,---,0.00,VWS V14.01,2013-08-05 06:32:00,
2013-08-05 01:38:00,58.5,54.3,29.03,WNW,292,0.0,0.0,86,0.00,,---,0.00,VWS V14.01,2013-08-05 06:38:00,
2013-08-05 01:43:00,58.5,54.0,29.03,WNW,292,0.0,0.0,85,0.00,,---,0.00,VWS V14.01,2013-08-05 06:43:00,
2013-08-05 01:48:00,58.5,53.7,29.03,WNW,292,0.0,0.0,84,0.00,,---,0.00,VWS V14.01,2013-08-05 06:48:00,
2013-08-05 01:53:00,58.6,53.5,29.03,WNW,292,0.0,0.0,83,0.00,,---,0.00,VWS V14.01,2013-08-05 06:53:00,
2013-08-05 01:58:00,58.6,53.5,29.03,WNW,292,0.0,0.0,83,0.00,,---,0.00,VWS V14.01,2013-08-05 06:58:00,
2013-08-05 02:03:00,58.8,53.7,29.03,WNW,292,0.0,0.0,83,0.00,,---,0.00,VWS V14.01,2013-08-05 07:03:00,
2013-08-05 02:09:00,58.8,53.7,29.03,WNW,292,0.0,0.0,83,0.00,,---,0.00,VWS V14.01,2013-08-05 07:09:00,
2013-08-05 02:14:00,58.8,53.7,29.03,WNW,292,0.0,0.0,83,0.00,,---,0.00,VWS V14.01,2013-08-05 07:14:00,
2013-08-05 02:19:00,59.4,53.9,29.03,WNW,292,0.0,0.0,82,0.00,,---,0.00,VWS V14.01,2013-08-05 07:19:00,
2013-08-05 02:24:00,59.4,53.5,29.03,WNW,292,0.0,0.0,81,0.00,,---,0.00,VWS V14.01,2013-08-05 07:24:00,
2013-08-05 02:29:00,59.7,53.5,29.03,WNW,292,0.0,0.0,80,0.00,,---,0.00,VWS V14.01,2013-08-05 07:29:00,
2013-08-05 02:34:00,59.9,53.7,29.03,WNW,292,0.0,0.0,80,0.00,,---,0.00,VWS V14.01,2013-08-05 07:34:00,
2013-08-05 02:40:00,60.1,53.6,29.03,WNW,292,0.0,4.0,79,0.00,,---,0.00,VWS V14.01,2013-08-05 07:40:00,
2013-08-05 02:45:00,60.1,53.6,29.03,WNW,292,0.0,0.0,79,0.00,,---,0.00,VWS V14.01,2013-08-05 07:45:00,
2013-08-05 02:50:00,60.3,53.4,29.03,WNW,292,0.0,0.0,78,0.00,,---,0.00,VWS V14.01,2013-08-05 07:50:00,
2013-08-05 02:55:00,60.4,53.6,29.03,WNW,292,2.2,2.2,78,0.00,,---,0.00,VWS V14.01,2013-08-05 07:55:00,
2013-08-05 03:00:00,60.4,53.6,29.03,WNW,292,0.0,0.0,78,0.00,,---,0.00,VWS V14.01,2013-08-05 08:00:00,
2013-08-05 03:06:00,60.4,53.6,29.03,WNW,292,0.0,0.0,78,0.00,,---,0.00,VWS V14.01,2013-08-05 08:06:00,
2013-08-05 03:10:00,60.4,53.6,29.03,WNW,292,0.0,0.0,78,0.00,,---,0.00,VWS V14.01,2013-08-05 08:10:00,
2013-08-05 03:16:00,60.4,53.6,29.00,WNW,292,0.0,0.0,78,0.00,,---,0.00,VWS V14.01,2013-08-05 08:16:00,
2013-08-05 03:21:00,60.4,53.6,29.00,WNW,292,0.0,0.0,78,0.00,,---,0.00,VWS V14.01,2013-08-05 08:21:00,
2013-08-05 03:26:00,60.4,53.9,29.00,WNW,292,0.0,0.0,79,0.00,,---,0.00,VWS V14.01,2013-08-05 08:26:00,
2013-08-05 03:31:00,60.4,53.6,29.00,WNW,292,0.0,0.0,78,0.00,,---,0.00,VWS V14.01,2013-08-05 08:31:00,
2013-08-05 03:37:00,60.4,53.6,29.00,WNW,292,0.0,0.0,78,0.00,,---,0.00,VWS V14.01,2013-08-05 08:37:00,
2013-08-05 03:41:00,60.4,53.6,29.03,WNW,292,0.0,0.0,78,0.00,,---,0.00,VWS V14.01,2013-08-05 08:41:00,
2013-08-05 03:46:00,60.6,53.4,29.03,WNW,292,0.0,0.0,77,0.00,,---,0.00,VWS V14.01,2013-08-05 08:46:00,
2013-08-05 03:52:00,60.8,53.5,29.03,WNW,292,0.0,0.0,77,0.00,,---,0.00,VWS V14.01,2013-08-05 08:52:00,
2013-08-05 03:58:00,60.8,54.6,29.03,WNW,292,0.0,0.0,80,0.00,,---,0.00,VWS V14.01,2013-08-05 08:58:00,
2013-08-05 04:03:00,60.6,55.1,29.03,WNW,292,0.0,0.0,82,0.00,,---,0.00,VWS V14.01,2013-08-05 09:03:00,
2013-08-05 04:09:00,60.3,55.7,29.03,WNW,292,0.0,0.0,85,0.00,,---,0.00,VWS V14.01,2013-08-05 09:09:00,
2013-08-05 04:13:00,60.1,55.9,29.03,WNW,292,0.0,0.0,86,0.00,,---,0.00,VWS V14.01,2013-08-05 09:13:00,
2013-08-05 04:19:00,59.7,56.2,29.03,WNW,292,0.0,0.0,88,0.00,,---,0.00,VWS V14.01,2013-08-05 09:19:00,
2013-08-05 04:24:00,59.7,56.5,29.03,WNW,292,0.0,0.0,89,0.00,,---,0.00,VWS V14.01,2013-08-05 09:24:00,
2013-08-05 04:30:00,59.7,56.5,29.03,WNW,292,0.0,0.0,89,0.00,,---,0.00,VWS V14.01,2013-08-05 09:30:00,
2013-08-05 04:35:00,59.7,56.5,29.03,WNW,292,0.0,0.0,89,0.00,,---,0.00,VWS V14.01,2013-08-05 09:35:00,
2013-08-05 04:40:00,59.2,57.2,29.03,WNW,292,0.0,0.0,93,0.00,,---,0.00,VWS V14.01,2013-08-05 09:40:00,
2013-08-05 04:45:00,58.8,57.1,29.00,WNW,292,0.0,0.0,94,0.00,,---,0.00,VWS V14.01,2013-08-05 09:45:00,
2013-08-05 04:50:00,59.0,57.3,29.00,WNW,292,0.0,0.0,94,0.00,,---,0.00,VWS V14.01,2013-08-05 09:50:00,
2013-08-05 04:56:00,59.2,57.8,29.00,WNW,292,0.0,0.0,95,0.00,,---,0.00,VWS V14.01,2013-08-05 09:56:00,
2013-08-05 05:01:00,59.4,58.2,29.03,WNW,292,0.0,0.0,96,0.00,,---,0.00,VWS V14.01,2013-08-05 10:01:00,
2013-08-05 05:07:00,59.2,58.3,29.03,WNW,292,0.0,0.0,97,0.00,,---,0.00,VWS V14.01,2013-08-05 10:07:00,
2013-08-05 05:12:00,59.2,58.3,29.00,WNW,292,0.0,0.0,97,0.00,,---,0.00,VWS V14.01,2013-08-05 10:12:00,
2013-08-05 05:17:00,59.2,58.3,29.00,WNW,292,0.0,0.0,97,0.00,,---,0.00,VWS V14.01,2013-08-05 10:17:00,
2013-08-05 05:22:00,59.0,58.2,29.00,WNW,292,0.0,0.0,97,0.00,,---,0.00,VWS V14.01,2013-08-05 10:22:00,
2013-08-05 05:27:00,59.0,58.2,29.00,WNW,292,0.0,0.0,97,0.00,,---,0.00,VWS V14.01,2013-08-05 10:27:00,
2013-08-05 05:32:00,58.8,58.3,29.00,WNW,292,0.0,0.0,98,0.00,,---,0.00,VWS V14.01,2013-08-05 10:32:00,
2013-08-05 05:38:00,58.8,58.3,29.00,WNW,292,0.0,0.0,98,0.00,,---,0.00,VWS V14.01,2013-08-05 10:38:00,
2013-08-05 05:43:00,58.8,58.3,28.97,WNW,292,0.0,2.7,98,0.00,,---,0.00,VWS V14.01,2013-08-05 10:43:00,
2013-08-05 05:48:00,59.0,58.2,28.97,WNW,292,2.7,2.7,97,0.00,,---,0.00,VWS V14.01,2013-08-05 10:48:00,
2013-08-05 05:53:00,59.2,58.3,28.97,NW,315,3.1,3.1,97,0.00,,---,0.00,VWS V14.01,2013-08-05 10:53:00,
2013-08-05 05:58:00,59.0,58.2,28.94,NNW,338,2.2,3.1,97,0.04,,---,0.04,VWS V14.01,2013-08-05 10:58:00,
2013-08-05 06:03:00,59.0,58.2,28.94,NNW,338,2.7,3.6,97,0.04,,---,0.04,VWS V14.01,2013-08-05 11:03:00,
2013-08-05 06:09:00,59.0,57.9,28.94,NNW,338,3.1,3.1,96,0.04,,---,0.04,VWS V14.01,2013-08-05 11:09:00,
2013-08-05 06:14:00,59.0,57.9,28.94,NNW,338,0.0,0.0,96,0.04,,---,0.04,VWS V14.01,2013-08-05 11:14:00,
2013-08-05 06:19:00,59.0,57.9,28.94,NW,315,2.7,4.0,96,0.04,,---,0.04,VWS V14.01,2013-08-05 11:19:00,
2013-08-05 06:24:00,59.2,58.0,28.94,WNW,292,2.7,2.7,96,0.04,,---,0.04,VWS V14.01,2013-08-05 11:24:00,
2013-08-05 06:29:00,59.4,58.2,28.94,WNW,292,0.0,2.2,96,0.04,,---,0.04,VWS V14.01,2013-08-05 11:29:00,
2013-08-05 06:34:00,59.4,58.2,28.94,WNW,292,3.1,3.1,96,0.04,,---,0.04,VWS V14.01,2013-08-05 11:34:00,
2013-08-05 06:40:00,59.4,58.2,28.94,WNW,292,3.6,3.6,96,0.04,,---,0.04,VWS V14.01,2013-08-05 11:40:00,
2013-08-05 06:45:00,59.4,58.2,28.94,WNW,292,0.0,2.2,96,0.04,,---,0.04,VWS V14.01,2013-08-05 11:45:00,
2013-08-05 06:50:00,59.5,58.4,28.94,WNW,292,0.0,0.0,96,0.04,,---,0.04,VWS V14.01,2013-08-05 11:50:00,
2013-08-05 06:55:00,59.5,58.4,28.94,WNW,292,0.0,0.0,96,0.04,,---,0.04,VWS V14.01,2013-08-05 11:55:00,
2013-08-05 07:00:00,59.5,58.4,28.94,WNW,292,0.0,0.0,96,0.00,,---,0.00,VWS V14.01,2013-08-05 12:00:00,
2013-08-05 07:05:00,59.5,58.7,28.94,WNW,292,0.0,3.6,97,0.00,,---,0.04,VWS V14.01,2013-08-05 12:05:00,
2013-08-05 07:10:00,59.7,58.9,28.94,WNW,292,3.1,3.1,97,0.00,,---,0.04,VWS V14.01,2013-08-05 12:10:00,
2013-08-05 07:15:00,59.9,59.0,28.94,WNW,292,3.1,3.1,97,0.00,,---,0.04,VWS V14.01,2013-08-05 12:15:00,
2013-08-05 07:21:00,60.3,59.4,28.94,WNW,292,0.0,0.0,97,0.00,,---,0.04,VWS V14.01,2013-08-05 12:21:00,
2013-08-05 07:26:00,60.4,59.6,28.94,WNW,292,2.7,2.7,97,0.00,,---,0.04,VWS V14.01,2013-08-05 12:26:00,
2013-08-05 07:31:00,60.4,59.6,28.94,WNW,292,0.0,3.6,97,0.00,,---,0.04,VWS V14.01,2013-08-05 12:31:00,
2013-08-05 07:36:00,60.6,59.8,28.94,WNW,292,0.0,0.0,97,0.00,,---,0.04,VWS V14.01,2013-08-05 12:36:00,
2013-08-05 07:41:00,60.8,59.7,28.94,WNW,292,0.0,0.0,96,0.00,,---,0.04,VWS V14.01,2013-08-05 12:41:00,
2013-08-05 07:46:00,61.0,59.8,28.97,WNW,292,0.0,0.0,96,0.00,,---,0.04,VWS V14.01,2013-08-05 12:46:00,
2013-08-05 07:52:00,61.0,59.5,28.97,WNW,292,0.0,0.0,95,0.00,,---,0.04,VWS V14.01,2013-08-05 12:52:00,
2013-08-05 07:57:00,61.2,59.7,28.97,WNW,292,0.0,0.0,95,0.00,,---,0.04,VWS V14.01,2013-08-05 12:57:00,
2013-08-05 08:02:00,61.0,59.2,28.97,WNW,292,0.0,0.0,94,0.00,,---,0.04,VWS V14.01,2013-08-05 13:02:00,
2013-08-05 08:08:00,61.2,59.4,28.97,WNW,292,0.0,0.0,94,0.00,,---,0.04,VWS V14.01,2013-08-05 13:08:00,
2013-08-05 08:13:00,61.0,59.2,28.97,WNW,292,0.0,0.0,94,0.00,,---,0.04,VWS V14.01,2013-08-05 13:13:00,
2013-08-05 08:18:00,61.3,59.6,28.97,WNW,292,0.0,0.0,94,0.00,,---,0.04,VWS V14.01,2013-08-05 13:18:00,
2013-08-05 08:23:00,61.7,60.0,28.97,WNW,292,0.0,0.0,94,0.00,,---,0.04,VWS V14.01,2013-08-05 13:23:00,
2013-08-05 08:28:00,61.7,60.0,28.97,WNW,292,0.0,0.0,94,0.00,,---,0.04,VWS V14.01,2013-08-05 13:28:00,
2013-08-05 08:33:00,61.9,59.8,28.97,WNW,292,0.0,0.0,93,0.00,,---,0.04,VWS V14.01,2013-08-05 13:33:00,
2013-08-05 08:38:00,62.1,60.0,28.97,WNW,292,2.2,2.2,93,0.00,,---,0.04,VWS V14.01,2013-08-05 13:38:00,
2013-08-05 08:44:00,62.2,59.9,28.97,WNW,292,2.7,3.1,92,0.00,,---,0.04,VWS V14.01,2013-08-05 13:44:00,
2013-08-05 08:50:00,62.4,60.1,28.97,WNW,292,2.7,3.6,92,0.00,,---,0.04,VWS V14.01,2013-08-05 13:50:00,
2013-08-05 08:55:00,62.8,60.4,28.97,WNW,292,0.0,0.0,92,0.00,,---,0.04,VWS V14.01,2013-08-05 13:55:00,
2013-08-05 09:00:00,63.1,60.8,28.94,WNW,292,2.7,2.7,92,0.00,,---,0.04,VWS V14.01,2013-08-05 14:00:00,
2013-08-05 09:05:00,64.0,61.4,28.94,WNW,292,3.1,3.1,91,0.00,,---,0.04,VWS V14.01,2013-08-05 14:05:00,
2013-08-05 09:12:00,65.5,62.2,28.94,WNW,292,0.0,0.0,89,0.00,,---,0.04,VWS V14.01,2013-08-05 14:12:00,
2013-08-05 09:16:00,66.4,61.4,28.94,WNW,292,4.5,4.5,84,0.00,,---,0.04,VWS V14.01,2013-08-05 14:16:00,
2013-08-05 09:21:00,66.2,60.5,28.94,WNW,292,3.1,4.0,82,0.00,,---,0.04,VWS V14.01,2013-08-05 14:21:00,
2013-08-05 09:27:00,65.5,59.8,28.94,WNW,292,0.0,0.0,82,0.00,,---,0.04,VWS V14.01,2013-08-05 14:27:00,
2013-08-05 09:32:00,65.5,60.2,28.94,WNW,292,0.0,0.0,83,0.00,,---,0.04,VWS V14.01,2013-08-05 14:32:00,
2013-08-05 09:37:00,65.5,59.8,28.94,WNW,292,0.0,0.0,82,0.00,,---,0.04,VWS V14.01,2013-08-05 14:37:00,
2013-08-05 09:42:00,65.7,60.4,28.94,WNW,292,0.0,2.7,83,0.00,,---,0.04,VWS V14.01,2013-08-05 14:42:00,
2013-08-05 09:47:00,66.0,60.7,28.94,WNW,292,3.1,3.6,83,0.00,,---,0.04,VWS V14.01,2013-08-05 14:47:00,
2013-08-05 09:52:00,66.2,60.5,28.94,WNW,292,0.0,0.0,82,0.00,,---,0.04,VWS V14.01,2013-08-05 14:52:00,
2013-08-05 09:57:00,66.6,60.9,28.94,WNW,292,2.7,4.0,82,0.00,,---,0.04,VWS V14.01,2013-08-05 14:57:00,
2013-08-05 10:02:00,67.3,61.3,28.94,WNW,292,4.0,4.0,81,0.00,,---,0.04,VWS V14.01,2013-08-05 15:02:00,
2013-08-05 10:08:00,67.3,60.9,28.94,WNW,292,2.2,3.6,80,0.00,,---,0.04,VWS V14.01,2013-08-05 15:08:00,
2013-08-05 10:13:00,67.8,61.4,28.94,East,90,3.1,5.8,80,0.00,,---,0.04,VWS V14.01,2013-08-05 15:13:00,
2013-08-05 10:18:00,67.6,60.9,28.94,WNW,292,3.6,3.6,79,0.00,,---,0.04,VWS V14.01,2013-08-05 15:18:00,
2013-08-05 10:23:00,67.8,61.1,28.94,WNW,292,0.0,3.6,79,0.00,,---,0.04,VWS V14.01,2013-08-05 15:23:00,
2013-08-05 10:28:00,68.4,61.2,28.94,WNW,292,0.0,0.0,78,0.00,,---,0.04,VWS V14.01,2013-08-05 15:28:00,
2013-08-05 10:33:00,67.8,60.3,28.94,NNW,338,0.0,0.0,77,0.00,,---,0.04,VWS V14.01,2013-08-05 15:33:00,
2013-08-05 10:38:00,68.7,61.6,28.94,WNW,292,2.2,2.7,78,0.00,,---,0.04,VWS V14.01,2013-08-05 15:38:00,
2013-08-05 10:44:00,68.7,60.9,28.94,WNW,292,0.0,0.0,76,0.00,,---,0.04,VWS V14.01,2013-08-05 15:44:00,
2013-08-05 10:49:00,69.3,61.8,28.94,WNW,292,3.6,4.0,77,0.00,,---,0.04,VWS V14.01,2013-08-05 15:49:00,
2013-08-05 10:54:00,69.3,59.9,28.94,WNW,292,4.0,4.9,72,0.00,,---,0.04,VWS V14.01,2013-08-05 15:54:00,
2013-08-05 10:59:00,69.6,60.6,28.91,WNW,292,4.5,5.4,73,0.00,,---,0.04,VWS V14.01,2013-08-05 15:59:00,
2013-08-05 11:04:00,69.8,60.4,28.91,WNW,292,3.1,4.9,72,0.00,,---,0.04,VWS V14.01,2013-08-05 16:04:00,
2013-08-05 11:09:00,69.8,60.4,28.91,WNW,292,2.2,6.3,72,0.00,,---,0.04,VWS V14.01,2013-08-05 16:09:00,
2013-08-05 11:14:00,70.0,60.5,28.91,WNW,292,3.6,3.6,72,0.00,,---,0.04,VWS V14.01,2013-08-05 16:14:00,
2013-08-05 11:20:00,70.5,61.1,28.91,WNW,292,7.6,7.6,72,0.00,,---,0.04,VWS V14.01,2013-08-05 16:20:00,
2013-08-05 11:25:00,70.7,60.8,28.91,NW,315,3.1,3.6,71,0.00,,---,0.04,VWS V14.01,2013-08-05 16:25:00,
2013-08-05 11:30:00,70.7,60.8,28.91,NW,315,0.0,0.0,71,0.00,,---,0.04,VWS V14.01,2013-08-05 16:30:00,
2013-08-05 11:35:00,70.5,60.7,28.91,ENE,68,2.2,2.7,71,0.00,,---,0.04,VWS V14.01,2013-08-05 16:35:00,
2013-08-05 11:40:00,70.5,61.1,28.91,NNE,22,3.1,3.1,72,0.00,,---,0.04,VWS V14.01,2013-08-05 16:40:00,
2013-08-05 11:45:00,69.8,60.4,28.91,WNW,292,2.7,2.7,72,0.00,,---,0.04,VWS V14.01,2013-08-05 16:45:00,
2013-08-05 11:52:00,70.0,60.9,28.91,WNW,292,0.0,0.0,73,0.00,,---,0.04,VWS V14.01,2013-08-05 16:52:00,
2013-08-05 11:57:00,69.8,60.4,28.91,WNW,292,2.7,4.9,72,0.00,,---,0.04,VWS V14.01,2013-08-05 16:57:00,
2013-08-05 12:02:00,70.0,60.9,28.91,WNW,292,2.7,3.1,73,0.00,,---,0.04,VWS V14.01,2013-08-05 17:02:00,
2013-08-05 12:07:00,69.8,61.2,28.91,NW,315,2.2,2.2,74,0.00,,---,0.04,VWS V14.01,2013-08-05 17:07:00,
2013-08-05 12:12:00,69.6,61.0,28.91,NW,315,2.2,4.0,74,0.00,,---,0.04,VWS V14.01,2013-08-05 17:12:00,
2013-08-05 12:17:00,69.4,60.8,28.91,WNW,292,3.6,4.0,74,0.00,,---,0.04,VWS V14.01,2013-08-05 17:17:00,
2013-08-05 12:22:00,69.6,61.3,28.91,NNW,338,3.6,3.6,75,0.00,,---,0.04,VWS V14.01,2013-08-05 17:22:00,
2013-08-05 12:27:00,69.4,61.5,28.91,NNW,338,2.2,4.0,76,0.00,,---,0.04,VWS V14.01,2013-08-05 17:27:00,
2013-08-05 12:32:00,68.9,60.7,28.91,WNW,292,4.9,4.9,75,0.00,,---,0.04,VWS V14.01,2013-08-05 17:32:00,
2013-08-05 12:37:00,69.1,61.2,28.91,WNW,292,0.0,0.0,76,0.00,,---,0.04,VWS V14.01,2013-08-05 17:37:00,
2013-08-05 12:43:00,68.9,61.0,28.91,ESE,112,2.7,3.6,76,0.00,,---,0.04,VWS V14.01,2013-08-05 17:43:00,
2013-08-05 12:48:00,68.9,61.4,28.91,ESE,112,0.0,0.0,77,0.00,,---,0.04,VWS V14.01,2013-08-05 17:48:00,
2013-08-05 12:53:00,68.9,61.8,28.91,ESE,112,0.0,0.0,78,0.00,,---,0.04,VWS V14.01,2013-08-05 17:53:00,
2013-08-05 12:58:00,68.7,61.2,28.91,ESE,112,3.6,5.8,77,0.00,,---,0.04,VWS V14.01,2013-08-05 17:58:00,
2013-08-05 13:03:00,68.5,61.4,28.91,North,0,4.0,4.0,78,0.00,,---,0.04,VWS V14.01,2013-08-05 18:03:00,
2013-08-05 13:08:00,68.7,61.6,28.91,NNW,338,0.0,0.0,78,0.00,,---,0.04,VWS V14.01,2013-08-05 18:08:00,
2013-08-05 13:13:00,68.7,61.6,28.91,NNW,338,2.2,2.2,78,0.00,,---,0.04,VWS V14.01,2013-08-05 18:13:00,
2013-08-05 13:19:00,68.9,62.1,28.91,NNW,338,0.0,0.0,79,0.00,,---,0.04,VWS V14.01,2013-08-05 18:19:00,
2013-08-05 13:24:00,69.1,61.9,28.91,NNW,338,4.0,4.0,78,0.00,,---,0.04,VWS V14.01,2013-08-05 18:24:00,
2013-08-05 13:29:00,69.3,62.1,28.91,NNW,338,2.2,2.2,78,0.00,,---,0.04,VWS V14.01,2013-08-05 18:29:00,
2013-08-05 13:35:00,70.0,62.5,28.91,NNW,338,0.0,0.0,77,0.00,,---,0.04,VWS V14.01,2013-08-05 18:35:00,
2013-08-05 13:40:00,70.0,61.7,28.91,ENE,68,5.4,5.4,75,0.00,,---,0.04,VWS V14.01,2013-08-05 18:40:00,
2013-08-05 13:45:00,70.2,61.9,28.88,ESE,112,3.1,3.6,75,0.00,,---,0.04,VWS V14.01,2013-08-05 18:45:00,
2013-08-05 13:50:00,70.2,62.2,28.88,East,90,3.6,4.0,76,0.00,,---,0.04,VWS V14.01,2013-08-05 18:50:00,
2013-08-05 13:55:00,70.0,62.5,28.88,West,270,0.0,0.0,77,0.00,,---,0.04,VWS V14.01,2013-08-05 18:55:00,
2013-08-05 14:01:00,69.8,61.9,28.88,NW,315,2.7,3.6,76,0.00,,---,0.04,VWS V14.01,2013-08-05 19:01:00,
2013-08-05 14:07:00,70.0,62.5,28.88,NNW,338,2.7,2.7,77,0.00,,---,0.04,VWS V14.01,2013-08-05 19:07:00,
2013-08-05 14:12:00,70.5,63.0,28.88,NNW,338,0.0,0.0,77,0.00,,---,0.04,VWS V14.01,2013-08-05 19:12:00,
2013-08-05 14:17:00,70.5,62.2,28.88,WNW,292,2.2,4.9,75,0.00,,---,0.04,VWS V14.01,2013-08-05 19:17:00,
2013-08-05 14:23:00,71.1,62.7,28.88,WNW,292,0.0,0.0,75,0.00,,---,0.04,VWS V14.01,2013-08-05 19:23:00,
2013-08-05 14:28:00,70.9,62.6,28.88,WNW,292,2.2,3.6,75,0.00,,---,0.04,VWS V14.01,2013-08-05 19:28:00,
2013-08-05 14:33:00,70.7,62.4,28.88,East,90,2.7,3.6,75,0.00,,---,0.04,VWS V14.01,2013-08-05 19:33:00,
2013-08-05 14:38:00,70.3,62.4,28.88,ESE,112,3.1,4.0,76,0.00,,---,0.04,VWS V14.01,2013-08-05 19:38:00,
2013-08-05 14:43:00,70.5,62.6,28.88,ESE,112,0.0,0.0,76,0.00,,---,0.04,VWS V14.01,2013-08-05 19:43:00,
2013-08-05 14:48:00,70.9,63.0,28.88,ESE,112,0.0,0.0,76,0.00,,---,0.04,VWS V14.01,2013-08-05 19:48:00,
2013-08-05 14:53:00,71.1,63.1,28.88,ESE,112,3.6,4.0,76,0.00,,---,0.04,VWS V14.01,2013-08-05 19:53:00,
2013-08-05 14:58:00,70.9,62.6,28.88,ESE,112,0.0,0.0,75,0.00,,---,0.04,VWS V14.01,2013-08-05 19:58:00,
2013-08-05 15:03:00,70.9,62.6,28.88,ESE,112,3.6,3.6,75,0.00,,---,0.04,VWS V14.01,2013-08-05 20:03:00,
2013-08-05 15:09:00,70.5,62.2,28.88,ESE,112,2.7,2.7,75,0.00,,---,0.04,VWS V14.01,2013-08-05 20:09:00,
2013-08-05 15:14:00,70.9,63.3,28.88,ESE,112,0.0,0.0,77,0.00,,---,0.04,VWS V14.01,2013-08-05 20:14:00,
2013-08-05 15:19:00,70.3,62.8,28.88,ESE,112,0.0,0.0,77,0.00,,---,0.04,VWS V14.01,2013-08-05 20:19:00,
2013-08-05 15:24:00,70.2,62.6,28.88,ESE,112,0.0,0.0,77,0.00,,---,0.04,VWS V14.01,2013-08-05 20:24:00,
2013-08-05 15:30:00,70.5,63.0,28.88,ESE,112,2.7,2.7,77,0.00,,---,0.04,VWS V14.01,2013-08-05 20:30:00,
2013-08-05 15:35:00,70.3,63.2,28.88,ESE,112,3.1,4.0,78,0.00,,---,0.04,VWS V14.01,2013-08-05 20:35:00,
2013-08-05 15:40:00,70.3,63.5,28.88,ESE,112,2.2,3.1,79,0.00,,---,0.04,VWS V14.01,2013-08-05 20:40:00,
2013-08-05 15:45:00,70.9,63.7,28.88,ESE,112,2.2,3.1,78,0.00,,---,0.04,VWS V14.01,2013-08-05 20:45:00,
2013-08-05 15:50:00,70.7,63.1,28.88,ESE,112,3.1,3.1,77,0.00,,---,0.04,VWS V14.01,2013-08-05 20:50:00,
2013-08-05 15:55:00,71.2,63.7,28.88,ESE,112,4.0,4.0,77,0.00,,---,0.04,VWS V14.01,2013-08-05 20:55:00,
2013-08-05 16:00:00,71.4,63.8,28.88,ESE,112,2.2,2.2,77,0.00,,---,0.04,VWS V14.01,2013-08-05 21:00:00,
2013-08-05 16:06:00,71.6,64.0,28.88,ESE,112,2.2,2.7,77,0.00,,---,0.04,VWS V14.01,2013-08-05 21:06:00,
2013-08-05 16:11:00,72.3,64.7,28.88,East,90,3.1,4.0,77,0.00,,---,0.00,VWS V14.01,2013-08-05 21:11:00,
2013-08-05 16:16:00,72.5,64.1,28.88,East,90,3.1,6.3,75,0.00,,---,0.04,VWS V14.01,2013-08-05 21:16:00,
2013-08-05 16:21:00,72.5,64.1,28.88,East,90,3.1,3.6,75,0.00,,---,0.04,VWS V14.01,2013-08-05 21:21:00,
2013-08-05 16:27:00,72.7,63.5,28.88,ESE,112,5.8,5.8,73,0.00,,---,0.04,VWS V14.01,2013-08-05 21:27:00,
2013-08-05 16:32:00,72.1,63.8,28.88,East,90,4.9,4.9,75,0.00,,---,0.04,VWS V14.01,2013-08-05 21:32:00,
2013-08-05 16:37:00,72.1,63.8,28.88,East,90,3.6,3.6,75,0.00,,---,0.04,VWS V14.01,2013-08-05 21:37:00,
2013-08-05 16:42:00,72.0,64.0,28.85,East,90,2.2,2.2,76,0.00,,---,0.04,VWS V14.01,2013-08-05 21:42:00,
2013-08-05 16:47:00,72.0,64.0,28.85,East,90,2.2,3.1,76,0.00,,---,0.04,VWS V14.01,2013-08-05 21:47:00,
2013-08-05 16:53:00,71.2,64.4,28.85,East,90,3.6,3.6,79,0.00,,---,0.04,VWS V14.01,2013-08-05 21:53:00,
2013-08-05 16:58:00,71.4,64.6,28.88,East,90,2.7,2.7,79,0.00,,---,0.04,VWS V14.01,2013-08-05 21:58:00,
2013-08-05 17:03:00,71.8,64.6,28.88,East,90,4.9,4.9,78,0.00,,---,0.04,VWS V14.01,2013-08-05 22:03:00,
2013-08-05 17:08:00,72.5,64.9,28.88,East,90,0.0,0.0,77,0.00,,---,0.04,VWS V14.01,2013-08-05 22:08:00,
2013-08-05 17:13:00,72.1,64.2,28.85,East,90,2.7,4.9,76,0.00,,---,0.04,VWS V14.01,2013-08-05 22:13:00,
2013-08-05 17:19:00,72.1,64.2,28.85,East,90,2.7,2.7,76,0.00,,---,0.04,VWS V14.01,2013-08-05 22:19:00,
2013-08-05 17:24:00,72.9,64.9,28.85,East,90,0.0,0.0,76,0.00,,---,0.04,VWS V14.01,2013-08-05 22:24:00,
2013-08-05 17:29:00,72.1,64.5,28.88,East,90,0.0,3.1,77,0.00,,---,0.04,VWS V14.01,2013-08-05 22:29:00,
2013-08-05 17:34:00,72.1,64.5,28.88,East,90,0.0,0.0,77,0.00,,---,0.04,VWS V14.01,2013-08-05 22:34:00,
2013-08-05 17:39:00,72.1,64.5,28.88,East,90,2.2,3.1,77,0.00,,---,0.04,VWS V14.01,2013-08-05 22:39:00,
2013-08-05 17:44:00,71.4,64.6,28.85,NNE,22,2.7,3.6,79,0.00,,---,0.04,VWS V14.01,2013-08-05 22:44:00,
2013-08-05 17:49:00,71.1,64.6,28.85,NNE,22,3.1,3.1,80,0.00,,---,0.04,VWS V14.01,2013-08-05 22:49:00,
2013-08-05 17:55:00,70.7,64.9,28.85,WNW,292,3.1,4.9,82,0.00,,---,0.04,VWS V14.01,2013-08-05 22:55:00,
2013-08-05 18:00:00,70.3,65.3,28.85,WNW,292,3.6,3.6,84,0.00,,---,0.04,VWS V14.01,2013-08-05 23:00:00,
2013-08-05 18:05:00,70.2,66.1,28.85,WNW,292,0.0,0.0,87,0.00,,---,0.00,VWS V14.01,2013-08-05 23:05:00,
2013-08-05 18:10:00,70.0,65.6,28.85,WNW,292,3.1,4.0,86,0.00,,---,0.04,VWS V14.01,2013-08-05 23:10:00,
2013-08-05 18:15:00,69.8,65.4,28.85,WNW,292,2.7,3.1,86,0.00,,---,0.04,VWS V14.01,2013-08-05 23:15:00,
2013-08-05 18:21:00,70.3,65.6,28.85,WNW,292,0.0,3.6,85,0.00,,---,0.04,VWS V14.01,2013-08-05 23:21:00,
2013-08-05 18:26:00,70.5,65.5,28.85,WNW,292,2.7,3.6,84,0.00,,---,0.04,VWS V14.01,2013-08-05 23:26:00,
2013-08-05 18:31:00,70.5,65.5,28.85,WNW,292,0.0,0.0,84,0.00,,---,0.04,VWS V14.01,2013-08-05 23:31:00,
2013-08-05 18:37:00,70.7,64.9,28.85,WNW,292,2.2,2.2,82,0.00,,---,0.04,VWS V14.01,2013-08-05 23:37:00,
2013-08-05 18:42:00,70.7,65.3,28.85,WNW,292,2.2,2.7,83,0.00,,---,0.04,VWS V14.01,2013-08-05 23:42:00,
2013-08-05 18:47:00,70.9,65.5,28.85,WNW,292,0.0,0.0,83,0.00,,---,0.04,VWS V14.01,2013-08-05 23:47:00,
2013-08-05 18:52:00,70.7,64.9,28.85,WNW,292,2.7,4.0,82,0.00,,---,0.04,VWS V14.01,2013-08-05 23:52:00,
2013-08-05 18:58:00,70.7,64.9,28.85,WNW,292,2.2,2.2,82,0.00,,---,0.04,VWS V14.01,2013-08-05 23:58:00,
2013-08-05 19:03:00,70.9,65.1,28.85,WNW,292,2.7,2.7,82,0.00,,---,0.04,VWS V14.01,2013-08-06 00:03:00,
2013-08-05 19:08:00,71.1,65.3,28.85,WNW,292,0.0,0.0,82,0.00,,---,0.04,VWS V14.01,2013-08-06 00:08:00,
2013-08-05 19:13:00,70.7,64.6,28.85,WNW,292,0.0,0.0,81,0.00,,---,0.04,VWS V14.01,2013-08-06 00:13:00,
2013-08-05 19:19:00,70.7,64.6,28.85,WNW,292,0.0,0.0,81,0.00,,---,0.04,VWS V14.01,2013-08-06 00:19:00,
2013-08-05 19:24:00,70.7,64.6,28.85,WNW,292,0.0,2.2,81,0.00,,---,0.04,VWS V14.01,2013-08-06 00:24:00,
2013-08-05 19:29:00,70.3,64.9,28.85,WNW,292,0.0,0.0,83,0.00,,---,0.04,VWS V14.01,2013-08-06 00:29:00,
2013-08-05 19:34:00,70.2,64.8,28.85,WNW,292,0.0,0.0,83,0.00,,---,0.04,VWS V14.01,2013-08-06 00:34:00,
2013-08-05 19:40:00,70.0,64.9,28.85,WNW,292,0.0,0.0,84,0.00,,---,0.04,VWS V14.01,2013-08-06 00:40:00,
2013-08-05 19:45:00,69.8,64.8,28.85,WNW,292,2.7,2.7,84,0.00,,---,0.04,VWS V14.01,2013-08-06 00:45:00,
2013-08-05 19:50:00,69.6,65.2,28.85,WNW,292,0.0,0.0,86,0.00,,---,0.04,VWS V14.01,2013-08-06 00:50:00,
2013-08-05 19:56:00,69.4,65.1,28.85,WNW,292,0.0,0.0,86,0.00,,---,0.04,VWS V14.01,2013-08-06 00:56:00,
2013-08-05 20:01:00,69.4,65.1,28.85,WNW,292,0.0,2.2,86,0.00,,---,0.04,VWS V14.01,2013-08-06 01:01:00,
2013-08-05 20:06:00,69.4,65.1,28.85,WNW,292,0.0,2.7,86,0.00,,---,0.04,VWS V14.01,2013-08-06 01:06:00,
2013-08-05 20:12:00,69.3,65.2,28.85,WNW,292,2.7,2.7,87,0.00,,---,0.04,VWS V14.01,2013-08-06 01:12:00,
2013-08-05 20:17:00,69.1,65.1,28.85,WNW,292,0.0,0.0,87,0.00,,---,0.04,VWS V14.01,2013-08-06 01:17:00,
2013-08-05 20:22:00,68.7,65.0,28.85,WNW,292,2.2,2.7,88,0.00,,---,0.04,VWS V14.01,2013-08-06 01:22:00,
2013-08-05 20:27:00,68.5,65.2,28.85,WNW,292,2.2,2.7,89,0.00,,---,0.04,VWS V14.01,2013-08-06 01:27:00,
2013-08-05 20:33:00,68.0,64.6,28.85,WNW,292,0.0,0.0,89,0.00,,---,0.04,VWS V14.01,2013-08-06 01:33:00,
2013-08-05 20:38:00,67.6,64.9,28.85,WNW,292,0.0,0.0,91,0.00,,---,0.04,VWS V14.01,2013-08-06 01:38:00,
2013-08-05 20:43:00,67.5,65.1,28.85,WNW,292,0.0,0.0,92,0.00,,---,0.04,VWS V14.01,2013-08-06 01:43:00,
2013-08-05 20:48:00,67.3,64.9,28.85,WNW,292,0.0,0.0,92,0.00,,---,0.04,VWS V14.01,2013-08-06 01:48:00,
2013-08-05 20:53:00,67.3,65.2,28.85,WNW,292,2.7,2.7,93,0.00,,---,0.04,VWS V14.01,2013-08-06 01:53:00,
2013-08-05 20:58:00,67.1,65.0,28.85,WNW,292,2.2,2.2,93,0.00,,---,0.04,VWS V14.01,2013-08-06 01:58:00,
2013-08-05 21:03:00,66.9,65.1,28.85,WNW,292,0.0,0.0,94,0.00,,---,0.04,VWS V14.01,2013-08-06 02:03:00,
2013-08-05 21:08:00,66.7,65.0,28.85,WNW,292,0.0,0.0,94,0.00,,---,0.04,VWS V14.01,2013-08-06 02:08:00,
2013-08-05 21:14:00,66.6,64.8,28.85,WNW,292,0.0,0.0,94,0.00,,---,0.04,VWS V14.01,2013-08-06 02:14:00,
2013-08-05 21:19:00,66.6,65.1,28.85,WNW,292,0.0,0.0,95,0.00,,---,0.04,VWS V14.01,2013-08-06 02:19:00,
2013-08-05 21:24:00,66.4,64.9,28.85,WNW,292,0.0,0.0,95,0.00,,---,0.04,VWS V14.01,2013-08-06 02:24:00,
2013-08-05 21:30:00,66.2,64.7,28.85,WNW,292,0.0,0.0,95,0.00,,---,0.04,VWS V14.01,2013-08-06 02:30:00,
2013-08-05 21:35:00,66.0,64.8,28.85,WNW,292,0.0,0.0,96,0.00,,---,0.04,VWS V14.01,2013-08-06 02:35:00,
2013-08-05 21:40:00,66.0,64.8,28.85,WNW,292,0.0,0.0,96,0.00,,---,0.04,VWS V14.01,2013-08-06 02:40:00,
2013-08-05 21:46:00,66.0,65.2,28.85,WNW,292,0.0,0.0,97,0.00,,---,0.04,VWS V14.01,2013-08-06 02:46:00,
2013-08-05 21:51:00,65.8,65.0,28.85,WNW,292,0.0,0.0,97,0.00,,---,0.04,VWS V14.01,2013-08-06 02:51:00,
2013-08-05 21:56:00,65.7,64.8,28.85,WNW,292,0.0,0.0,97,0.00,,---,0.04,VWS V14.01,2013-08-06 02:56:00,
2013-08-05 22:01:00,65.5,64.9,28.85,WNW,292,0.0,0.0,98,0.00,,---,0.04,VWS V14.01,2013-08-06 03:01:00,
2013-08-05 22:06:00,65.3,64.7,28.85,WNW,292,0.0,0.0,98,0.00,,---,0.04,VWS V14.01,2013-08-06 03:06:00,
2013-08-05 22:12:00,65.1,64.5,28.85,WNW,292,0.0,0.0,98,0.00,,---,0.04,VWS V14.01,2013-08-06 03:12:00,
2013-08-05 22:17:00,64.9,64.4,28.85,WNW,292,0.0,0.0,98,0.00,,---,0.04,VWS V14.01,2013-08-06 03:17:00,
2013-08-05 22:22:00,64.9,64.4,28.85,WNW,292,0.0,0.0,98,0.00,,---,0.04,VWS V14.01,2013-08-06 03:22:00,
2013-08-05 22:27:00,64.8,64.2,28.85,WNW,292,0.0,0.0,98,0.00,,---,0.04,VWS V14.01,2013-08-06 03:27:00,
2013-08-05 22:32:00,64.9,64.4,28.85,WNW,292,0.0,0.0,98,0.00,,---,0.04,VWS V14.01,2013-08-06 03:32:00,
2013-08-05 22:37:00,64.8,64.2,28.85,WNW,292,0.0,0.0,98,0.00,,---,0.04,VWS V14.01,2013-08-06 03:37:00,
2013-08-05 22:42:00,64.6,64.0,28.85,WNW,292,0.0,0.0,98,0.00,,---,0.04,VWS V14.01,2013-08-06 03:42:00,
2013-08-05 22:47:00,64.4,63.8,28.85,WNW,292,0.0,0.0,98,0.00,,---,0.04,VWS V14.01,2013-08-06 03:47:00,
2013-08-05 22:52:00,64.4,63.8,28.85,WNW,292,0.0,0.0,98,0.00,,---,0.04,VWS V14.01,2013-08-06 03:52:00,
2013-08-05 22:57:00,64.4,63.8,28.85,WNW,292,0.0,0.0,98,0.00,,---,0.04,VWS V14.01,2013-08-06 03:57:00,
2013-08-05 23:01:00,64.4,63.8,28.85,WNW,292,0.0,0.0,98,0.00,,---,0.04,VWS V14.01,2013-08-06 04:01:00,
2013-08-05 23:03:00,64.4,63.8,28.85,WNW,292,0.0,0.0,98,0.00,,---,0.04,VWS V14.01,2013-08-06 04:03:00,
2013-08-05 23:04:00,64.4,63.8,28.85,WNW,292,0.0,0.0,98,0.00,,---,0.04,VWS V14.01,2013-08-06 04:04:00,
2013-08-05 23:09:00,64.2,63.7,28.85,WNW,292,0.0,0.0,98,0.00,,---,0.04,VWS V14.01,2013-08-06 04:09:00,
2013-08-05 23:14:00,64.4,63.8,28.85,WNW,292,0.0,0.0,98,0.00,,---,0.04,VWS V14.01,2013-08-06 04:14:00,
2013-08-05 23:19:00,64.6,64.0,28.85,WNW,292,2.2,2.2,98,0.00,,---,0.04,VWS V14.01,2013-08-06 04:19:00,
2013-08-05 23:24:00,64.6,64.0,28.85,WNW,292,0.0,0.0,98,0.00,,---,0.04,VWS V14.01,2013-08-06 04:24:00,
2013-08-05 23:29:00,64.6,64.0,28.85,WNW,292,0.0,0.0,98,0.00,,---,0.04,VWS V14.01,2013-08-06 04:29:00,
2013-08-05 23:34:00,64.2,63.7,28.85,WNW,292,0.0,0.0,98,0.00,,---,0.04,VWS V14.01,2013-08-06 04:34:00,
2013-08-05 23:39:00,64.2,63.7,28.85,WNW,292,0.0,0.0,98,0.00,,---,0.04,VWS V14.01,2013-08-06 04:39:00,
2013-08-05 23:44:00,63.9,63.3,28.85,WNW,292,0.0,0.0,98,0.00,,---,0.04,VWS V14.01,2013-08-06 04:44:00,
2013-08-05 23:50:00,63.7,63.1,28.85,WNW,292,0.0,0.0,98,0.00,,---,0.04,VWS V14.01,2013-08-06 04:50:00,
2013-08-05 23:55:00,63.7,63.1,28.85,WNW,292,0.0,0.0,98,0.00,,---,0.04,VWS V14.01,2013-08-06 04:55:00,